createdAt,value
2022-07-29T00:00:02.108Z,94172.47
2022-07-29T00:02:29.328Z,94169.34
2022-07-29T00:04:56.027Z,94169.84
2022-07-29T00:07:22.734Z,94164.34
2022-07-29T00:09:52.119Z,94173.53
2022-07-29T00:12:25.602Z,94171.16
2022-07-29T00:14:55.272Z,94174.31
2022-07-29T00:17:22.050Z,94175.66
2022-07-29T00:19:48.748Z,94185.09
2022-07-29T00:22:16.219Z,94173.03
2022-07-29T00:24:43.136Z,94188.78
2022-07-29T00:27:09.893Z,94180.38
2022-07-29T00:29:36.543Z,94180.91
2022-07-29T00:32:03.809Z,94173.56
2022-07-29T00:34:49.353Z,94173.28
2022-07-29T00:37:16.036Z,94182.47
2022-07-29T00:39:42.729Z,94176.97
2022-07-29T00:42:10.527Z,94169.59
2022-07-29T00:44:39.082Z,94179.28
2022-07-29T00:47:06.199Z,94170.59
2022-07-29T00:49:33.789Z,94176.97
2022-07-29T00:52:03.430Z,94174.03
2022-07-29T00:54:30.274Z,94180.66
2022-07-29T00:57:00.550Z,94168.25
2022-07-29T00:59:34.461Z,94180.63
2022-07-29T01:02:02.182Z,94185.09
2022-07-29T01:04:30.784Z,94178.78
2022-07-29T01:06:57.677Z,94178.50
2022-07-29T01:09:42.915Z,94180.34
2022-07-29T01:12:11.811Z,94176.16
2022-07-29T01:14:38.976Z,94186.94
2022-07-29T01:17:27.735Z,94180.88
2022-07-29T01:20:33.061Z,94178.75
2022-07-29T01:23:49.897Z,94166.69
2022-07-29T01:26:44.532Z,94174.53
2022-07-29T01:29:38.817Z,94166.13
2022-07-29T01:32:18.066Z,94171.94
2022-07-29T01:35:23.447Z,94168.78
2022-07-29T01:37:56.860Z,94164.56
2022-07-29T01:40:35.984Z,94159.84
2022-07-29T01:43:14.074Z,94160.13
2022-07-29T01:45:54.594Z,94155.06
2022-07-29T01:48:24.541Z,94135.41
2022-07-29T01:51:07.642Z,94151.16
2022-07-29T01:53:43.499Z,94150.34
2022-07-29T01:56:11.689Z,94140.38
2022-07-29T01:58:40.564Z,94143.53
2022-07-29T02:01:10.054Z,94135.63
2022-07-29T02:03:37.892Z,94137.22
2022-07-29T02:06:05.900Z,94127.78
2022-07-29T02:08:34.031Z,94135.63
2022-07-29T02:11:01.906Z,94131.69
2022-07-29T02:13:30.063Z,94134.34
2022-07-29T02:15:58.624Z,94128.28
2022-07-29T02:18:26.799Z,94135.13
2022-07-29T02:20:55.401Z,94130.13
2022-07-29T02:23:24.318Z,94128.81
2022-07-29T02:25:53.791Z,94120.44
2022-07-29T02:28:21.682Z,94125.13
2022-07-29T02:30:49.096Z,94123.31
2022-07-29T02:33:17.719Z,94117.78
2022-07-29T02:35:47.275Z,94117.78
2022-07-29T02:38:34.484Z,94116.19
2022-07-29T02:41:12.528Z,94110.16
2022-07-29T02:43:40.651Z,94114.09
2022-07-29T02:46:12.674Z,94108.06
2022-07-29T02:49:20.344Z,94107.78
2022-07-29T02:51:52.769Z,94108.34
2022-07-29T02:54:36.290Z,94097.56
2022-07-29T02:57:07.846Z,94108.59
2022-07-29T02:59:36.660Z,94106.75
2022-07-29T03:02:03.626Z,94109.66
2022-07-29T03:04:32.260Z,94112.00
2022-07-29T03:07:00.631Z,94097.28
2022-07-29T03:09:28.250Z,94104.13
2022-07-29T03:11:56.132Z,94112.53
2022-07-29T03:14:24.053Z,94116.44
2022-07-29T03:16:51.654Z,94107.78
2022-07-29T03:19:19.242Z,94115.16
2022-07-29T03:21:45.915Z,94118.56
2022-07-29T03:24:34.883Z,94107.28
2022-07-29T03:27:02.127Z,94110.16
2022-07-29T03:29:33.222Z,94117.00
2022-07-29T03:32:01.039Z,94108.59
2022-07-29T03:34:29.471Z,94106.75
2022-07-29T03:36:56.183Z,94107.25
2022-07-29T03:39:25.560Z,94103.84
2022-07-29T03:41:55.002Z,94120.63
2022-07-29T03:44:22.193Z,94124.03
2022-07-29T03:46:50.189Z,94124.03
2022-07-29T03:49:18.124Z,94115.06
2022-07-29T03:51:44.898Z,94114.53
2022-07-29T03:54:11.993Z,94106.97
2022-07-29T03:56:41.431Z,94114.59
2022-07-29T03:59:08.607Z,94117.75
2022-07-29T04:01:35.741Z,94115.38
2022-07-29T04:04:03.230Z,94118.28
2022-07-29T04:06:30.037Z,94120.63
2022-07-29T04:08:56.765Z,94128.78
2022-07-29T04:11:23.553Z,94127.47
2022-07-29T04:13:50.183Z,94131.19
2022-07-29T04:16:17.000Z,94128.81
2022-07-29T04:18:43.667Z,94130.63
2022-07-29T04:21:10.346Z,94133.00
2022-07-29T04:23:36.978Z,94142.19
2022-07-29T04:26:20.882Z,94146.16
2022-07-29T04:28:47.587Z,94146.63
2022-07-29T04:31:14.882Z,94150.34
2022-07-29T04:33:41.586Z,94148.78
2022-07-29T04:36:28.570Z,94148.53
2022-07-29T04:38:55.099Z,94151.19
2022-07-29T04:41:21.901Z,94155.38
2022-07-29T04:43:48.803Z,94153.03
2022-07-29T04:46:15.624Z,94152.50
2022-07-29T04:48:42.651Z,94155.91
2022-07-29T04:51:09.357Z,94157.22
2022-07-29T04:53:36.082Z,94153.25
2022-07-29T04:56:03.331Z,94152.47
2022-07-29T04:58:30.102Z,94151.97
2022-07-29T05:00:56.973Z,94153.28
2022-07-29T05:03:23.784Z,94158.78
2022-07-29T05:05:50.622Z,94155.13
2022-07-29T05:08:17.361Z,94150.91
2022-07-29T05:10:44.082Z,94154.63
2022-07-29T05:13:10.868Z,94155.16
2022-07-29T05:15:38.189Z,94151.47
2022-07-29T05:18:05.291Z,94154.63
2022-07-29T05:20:32.500Z,94149.38
2022-07-29T05:23:00.300Z,94163.78
2022-07-29T05:25:43.123Z,94165.06
2022-07-29T05:28:12.120Z,94158.00
2022-07-29T05:30:39.080Z,94157.75
2022-07-29T05:33:05.932Z,94163.31
2022-07-29T05:35:32.763Z,94158.28
2022-07-29T05:37:59.531Z,94164.84
2022-07-29T05:40:26.422Z,94163.56
2022-07-29T05:42:53.253Z,94165.16
2022-07-29T05:45:19.991Z,94161.19
2022-07-29T05:47:46.811Z,94149.59
2022-07-29T05:50:13.819Z,94161.44
2022-07-29T05:52:40.811Z,94162.50
2022-07-29T05:55:07.978Z,94159.34
2022-07-29T05:57:34.826Z,94154.59
2022-07-29T06:00:01.636Z,94162.47
2022-07-29T06:02:28.491Z,94163.56
2022-07-29T06:04:55.470Z,94160.91
2022-07-29T06:07:22.402Z,94163.00
2022-07-29T06:09:49.210Z,94162.44
2022-07-29T06:12:16.013Z,94162.16
2022-07-29T06:14:42.821Z,94157.66
2022-07-29T06:17:09.703Z,94165.84
2022-07-29T06:19:37.512Z,94164.28
2022-07-29T06:22:04.861Z,94166.91
2022-07-29T06:24:31.869Z,94164.03
2022-07-29T06:26:58.879Z,94150.84
2022-07-29T06:29:25.844Z,94159.75
2022-07-29T06:31:52.664Z,94156.84
2022-07-29T06:34:20.262Z,94163.91
2022-07-29T06:36:47.726Z,94167.91
2022-07-29T06:39:15.709Z,94170.25
2022-07-29T06:41:42.720Z,94178.66
2022-07-29T06:44:09.991Z,94173.16
2022-07-29T06:46:37.638Z,94178.59
2022-07-29T06:49:05.637Z,94187.81
2022-07-29T06:51:32.539Z,94188.53
2022-07-29T06:54:02.782Z,94189.09
2022-07-29T06:56:39.543Z,94190.16
2022-07-29T06:59:08.201Z,94194.59
2022-07-29T07:01:35.261Z,94200.44
2022-07-29T07:04:02.120Z,94196.09
2022-07-29T07:06:28.968Z,94198.72
2022-07-29T07:08:55.929Z,94191.63
2022-07-29T07:11:22.829Z,94190.53
2022-07-29T07:13:49.690Z,94193.69
2022-07-29T07:16:17.039Z,94192.69
2022-07-29T07:18:46.269Z,94192.41
2022-07-29T07:21:18.800Z,94190.97
2022-07-29T07:23:46.579Z,94192.16
2022-07-29T07:26:13.359Z,94197.69
2022-07-29T07:28:40.290Z,94201.72
2022-07-29T07:31:07.265Z,94197.75
2022-07-29T07:33:34.082Z,94208.81
2022-07-29T07:36:00.920Z,94198.66
2022-07-29T07:38:27.828Z,94195.50
2022-07-29T07:40:54.710Z,94208.13
2022-07-29T07:43:21.655Z,94208.53
2022-07-29T07:45:48.430Z,94211.81
2022-07-29T07:48:15.368Z,94205.75
2022-07-29T07:50:42.112Z,94216.00
2022-07-29T07:53:08.998Z,94209.00
2022-07-29T07:56:08.137Z,94214.00
2022-07-29T07:58:27.985Z,94210.97
2022-07-29T08:00:55.044Z,94220.56
2022-07-29T08:03:22.093Z,94213.16
2022-07-29T08:05:49.463Z,94203.25
2022-07-29T08:08:16.269Z,94214.13
2022-07-29T08:10:56.996Z,94213.13
2022-07-29T08:13:28.241Z,94226.00
2022-07-29T08:15:59.181Z,94211.44
2022-07-29T08:18:27.492Z,94214.63
2022-07-29T08:20:54.451Z,94202.56
2022-07-29T08:23:21.681Z,94205.59
2022-07-29T08:25:50.168Z,94201.66
2022-07-29T08:28:18.147Z,94200.22
2022-07-29T08:30:45.220Z,94207.53
2022-07-29T08:33:12.268Z,94207.19
2022-07-29T08:35:40.028Z,94204.44
2022-07-29T08:38:07.109Z,94222.59
2022-07-29T08:40:33.940Z,94214.22
2022-07-29T08:43:07.146Z,94214.34
2022-07-29T08:45:48.217Z,94210.56
2022-07-29T08:48:16.719Z,94211.34
2022-07-29T08:50:47.344Z,94211.22
2022-07-29T08:53:16.359Z,94200.31
2022-07-29T08:55:48.364Z,94203.41
2022-07-29T08:58:16.550Z,94206.00
2022-07-29T09:00:46.916Z,94207.34
2022-07-29T09:03:19.503Z,94201.84
2022-07-29T09:05:48.434Z,94202.56
2022-07-29T09:08:17.163Z,94211.53
2022-07-29T09:10:44.617Z,94208.03
2022-07-29T09:13:11.399Z,94204.63
2022-07-29T09:15:38.183Z,94207.22
2022-07-29T09:18:04.980Z,94200.91
2022-07-29T09:20:51.747Z,94204.84
2022-07-29T09:23:23.203Z,94202.56
2022-07-29T09:25:51.680Z,94202.44
2022-07-29T09:28:19.332Z,94210.22
2022-07-29T09:31:00.268Z,94204.13
2022-07-29T09:33:35.495Z,94206.88
2022-07-29T09:36:06.799Z,94201.84
2022-07-29T09:38:34.542Z,94198.84
2022-07-29T09:41:05.486Z,94195.94
2022-07-29T09:43:33.073Z,94199.53
2022-07-29T09:46:13.337Z,94192.38
2022-07-29T09:48:40.453Z,94186.81
2022-07-29T09:51:20.687Z,94183.94
2022-07-29T09:53:49.301Z,94184.03
2022-07-29T09:56:16.144Z,94179.53
2022-07-29T09:58:42.841Z,94187.63
2022-07-29T10:01:09.658Z,94190.78
2022-07-29T10:04:05.814Z,94185.81
2022-07-29T10:06:32.701Z,94185.81
2022-07-29T10:09:12.485Z,94179.06
2022-07-29T10:11:49.442Z,94172.47
2022-07-29T10:14:16.911Z,94172.38
2022-07-29T10:16:43.766Z,94179.06
2022-07-29T10:19:10.832Z,94171.47
2022-07-29T10:21:38.942Z,94174.38
2022-07-29T10:24:06.469Z,94171.72
2022-07-29T10:26:33.412Z,94165.75
2022-07-29T10:29:00.662Z,94162.16
2022-07-29T10:31:40.104Z,94164.72
2022-07-29T10:34:22.698Z,94172.03
2022-07-29T10:36:58.223Z,94164.94
2022-07-29T10:39:49.912Z,94175.31
2022-07-29T10:42:33.533Z,94178.63
2022-07-29T10:45:01.653Z,94177.06
2022-07-29T10:47:28.577Z,94182.38
2022-07-29T10:50:01.322Z,94178.75
2022-07-29T10:52:58.221Z,94174.97
2022-07-29T10:55:35.748Z,94176.34
2022-07-29T10:58:32.190Z,94171.41
2022-07-29T11:00:59.227Z,94167.25
2022-07-29T11:03:50.790Z,94170.44
2022-07-29T11:06:26.859Z,94166.63
2022-07-29T11:09:25.869Z,94163.31
2022-07-29T11:12:04.971Z,94168.44
2022-07-29T11:14:53.608Z,94170.78
2022-07-29T11:17:21.024Z,94170.19
2022-07-29T11:19:52.183Z,94162.34
2022-07-29T11:22:35.901Z,94171.09
2022-07-29T11:25:16.995Z,94171.59
2022-07-29T11:27:45.890Z,94164.19
2022-07-29T11:30:13.301Z,94167.31
2022-07-29T11:32:44.825Z,94166.31
2022-07-29T11:35:37.480Z,94158.34
2022-07-29T11:38:27.802Z,94158.94
2022-07-29T11:41:27.199Z,94161.13
2022-07-29T11:43:59.279Z,94153.31
2022-07-29T11:46:44.780Z,94161.72
2022-07-29T11:49:12.147Z,94155.63
2022-07-29T11:51:48.715Z,94157.03
2022-07-29T11:54:18.341Z,94146.56
2022-07-29T11:56:54.440Z,94149.16
2022-07-29T11:59:21.978Z,94149.47
2022-07-29T12:04:53.933Z,94132.16
2022-07-29T12:07:34.623Z,94134.56
2022-07-29T12:10:03.210Z,94132.53
2022-07-29T12:12:30.066Z,94123.47
2022-07-29T12:14:57.065Z,94109.19
2022-07-29T12:17:34.429Z,94118.06
2022-07-29T12:20:04.151Z,94118.72
2022-07-29T12:22:33.381Z,94117.81
2022-07-29T12:28:05.561Z,94103.69
2022-07-29T12:30:42.379Z,94101.16
2022-07-29T12:33:16.201Z,94090.59
2022-07-29T12:35:45.901Z,94095.03
2022-07-29T12:38:21.770Z,94081.97
2022-07-29T12:40:49.510Z,94083.69
2022-07-29T12:43:19.071Z,94070.63
2022-07-29T12:45:49.547Z,94067.22
2022-07-29T12:48:17.357Z,94070.91
2022-07-29T12:50:55.658Z,94069.66
2022-07-29T12:53:22.783Z,94067.72
2022-07-29T12:55:52.770Z,94066.16
2022-07-29T12:58:42.632Z,94064.03
2022-07-29T13:01:19.122Z,94066.31
2022-07-29T13:03:57.496Z,94063.81
2022-07-29T13:06:51.127Z,94063.81
2022-07-29T13:09:24.161Z,94053.88
2022-07-29T13:11:53.030Z,94054.44
2022-07-29T13:14:35.846Z,94045.44
2022-07-29T13:17:11.095Z,94052.44
2022-07-29T13:19:47.072Z,94051.97
2022-07-29T13:22:16.252Z,94044.75
2022-07-29T13:25:00.243Z,94041.19
2022-07-29T13:27:28.766Z,94043.69
2022-07-29T13:29:57.644Z,94044.59
2022-07-29T13:32:29.093Z,94048.75
2022-07-29T13:35:01.777Z,94042.75
2022-07-29T13:37:35.289Z,94046.94
2022-07-29T13:40:04.320Z,94054.88
2022-07-29T13:42:32.562Z,94033.41
2022-07-29T13:45:00.172Z,94037.41
2022-07-29T13:47:32.119Z,94031.38
2022-07-29T13:50:01.574Z,94042.72
2022-07-29T13:52:28.664Z,94037.56
2022-07-29T13:54:55.432Z,94024.38
2022-07-29T13:57:22.235Z,94024.69
2022-07-29T13:59:53.549Z,94013.72
2022-07-29T14:02:21.255Z,93995.75
2022-07-29T14:04:52.516Z,94008.53
2022-07-29T14:07:19.291Z,94021.84
2022-07-29T14:09:46.082Z,94008.00
2022-07-29T14:12:13.041Z,94012.25
2022-07-29T14:14:39.902Z,94007.69
2022-07-29T14:17:07.734Z,94015.84
2022-07-29T14:19:39.244Z,94010.22
2022-07-29T14:22:07.689Z,94006.78
2022-07-29T14:24:37.361Z,94000.16
2022-07-29T14:27:05.609Z,93997.19
2022-07-29T14:29:38.175Z,93992.09
2022-07-29T14:32:10.175Z,93993.44
2022-07-29T14:34:38.138Z,93992.28
2022-07-29T14:37:06.849Z,93994.22
2022-07-29T14:39:36.916Z,93977.81
2022-07-29T14:42:06.559Z,93992.75
2022-07-29T14:44:33.629Z,93983.97
2022-07-29T14:47:01.042Z,93985.53
2022-07-29T14:49:35.412Z,93980.41
2022-07-29T14:52:02.262Z,93983.09
2022-07-29T14:54:29.077Z,93988.31
2022-07-29T14:56:58.505Z,93979.28
2022-07-29T14:59:26.305Z,93983.19
2022-07-29T15:01:53.304Z,93988.91
2022-07-29T15:04:20.391Z,93981.28
2022-07-29T15:06:47.302Z,93983.28
2022-07-29T15:09:14.402Z,93975.94
2022-07-29T15:11:41.167Z,93971.56
2022-07-29T15:14:07.962Z,93974.91
2022-07-29T15:16:37.242Z,93970.13
2022-07-29T15:19:05.261Z,93961.03
2022-07-29T15:21:32.131Z,93954.13
2022-07-29T15:23:59.062Z,93955.44
2022-07-29T15:26:25.863Z,93957.09
2022-07-29T15:28:52.851Z,93959.97
2022-07-29T15:31:22.407Z,93960.44
2022-07-29T15:33:49.178Z,93958.72
2022-07-29T15:36:42.148Z,93950.59
2022-07-29T15:39:02.812Z,93952.81
2022-07-29T15:41:29.573Z,93952.03
2022-07-29T15:43:56.440Z,93960.09
2022-07-29T15:46:41.982Z,93957.03
2022-07-29T15:49:09.277Z,93957.13
2022-07-29T15:51:36.152Z,93948.50
2022-07-29T15:54:04.265Z,93947.16
2022-07-29T15:56:32.025Z,93955.09
2022-07-29T15:58:59.340Z,93954.72
2022-07-29T16:01:27.926Z,93949.44
2022-07-29T16:03:54.891Z,93952.56
2022-07-29T16:06:22.019Z,93940.13
2022-07-29T16:08:48.792Z,93953.25
2022-07-29T16:11:15.630Z,93955.38
2022-07-29T16:13:42.461Z,93953.22
2022-07-29T16:16:09.327Z,93960.72
2022-07-29T16:18:36.209Z,93945.75
2022-07-29T16:21:03.261Z,93953.75
2022-07-29T16:23:30.074Z,93946.91
2022-07-29T16:26:00.024Z,93942.69
2022-07-29T16:28:27.443Z,93937.34
2022-07-29T16:30:54.219Z,93943.75
2022-07-29T16:33:21.104Z,93937.50
2022-07-29T16:35:47.842Z,93940.19
2022-07-29T16:38:14.773Z,93933.91
2022-07-29T16:40:41.773Z,93938.91
2022-07-29T16:43:08.676Z,93937.53
2022-07-29T16:45:46.491Z,93943.47
2022-07-29T16:48:18.733Z,93935.78
2022-07-29T16:50:46.091Z,93931.72
2022-07-29T16:53:12.954Z,93936.84
2022-07-29T16:55:41.987Z,93934.06
2022-07-29T16:58:09.920Z,93935.22
2022-07-29T17:00:36.878Z,93937.13
2022-07-29T17:03:05.509Z,93921.47
2022-07-29T17:05:50.765Z,93931.97
2022-07-29T17:08:20.207Z,93925.09
2022-07-29T17:10:47.509Z,93928.16
2022-07-29T17:13:14.642Z,93927.38
2022-07-29T17:15:42.674Z,93919.81
2022-07-29T17:18:12.783Z,93922.28
2022-07-29T17:20:41.385Z,93918.53
2022-07-29T17:23:08.212Z,93934.28
2022-07-29T17:25:35.002Z,93927.47
2022-07-29T17:28:02.006Z,93934.66
2022-07-29T17:30:29.713Z,93935.31
2022-07-29T17:32:56.544Z,93941.72
2022-07-29T17:35:42.190Z,93942.94
2022-07-29T17:38:09.032Z,93944.97
2022-07-29T17:40:35.963Z,93948.13
2022-07-29T17:43:04.787Z,93946.53
2022-07-29T17:45:50.165Z,93942.53
2022-07-29T17:48:18.423Z,93953.22
2022-07-29T17:50:45.699Z,93946.00
2022-07-29T17:53:16.147Z,93939.72
2022-07-29T17:55:45.619Z,93946.75
2022-07-29T17:58:12.908Z,93942.94
2022-07-29T18:00:40.122Z,93956.38
2022-07-29T18:03:07.295Z,93951.97
2022-07-29T18:05:34.322Z,93960.47
2022-07-29T18:08:01.863Z,93962.66
2022-07-29T18:10:28.604Z,93961.56
2022-07-29T18:12:55.420Z,93963.94
2022-07-29T18:15:22.190Z,93968.34
2022-07-29T18:17:56.557Z,93955.22
2022-07-29T18:20:24.420Z,93949.56
2022-07-29T18:22:51.273Z,93958.59
2022-07-29T18:25:18.235Z,93952.41
2022-07-29T18:30:12.282Z,93943.38
2022-07-29T18:32:39.013Z,93950.34
2022-07-29T18:35:06.502Z,93949.84
2022-07-29T18:38:01.216Z,93946.94
2022-07-29T18:40:26.411Z,93951.78
2022-07-29T18:42:57.013Z,93952.03
2022-07-29T18:45:28.768Z,93951.06
2022-07-29T18:47:58.904Z,93953.13
2022-07-29T18:50:29.288Z,93961.34
2022-07-29T18:52:58.935Z,93965.28
2022-07-29T18:55:26.751Z,93969.56
2022-07-29T18:57:56.134Z,93974.88
2022-07-29T19:00:24.587Z,93982.03
2022-07-29T19:02:52.825Z,93981.66
2022-07-29T19:05:19.891Z,93982.16
2022-07-29T19:07:49.537Z,93971.66
2022-07-29T19:10:16.513Z,93962.03
2022-07-29T19:12:43.943Z,93973.19
2022-07-29T19:15:11.613Z,93978.97
2022-07-29T19:17:39.030Z,93973.97
2022-07-29T19:20:07.792Z,93983.69
2022-07-29T19:22:35.499Z,93984.84
2022-07-29T19:25:04.462Z,93983.84
2022-07-29T19:27:31.866Z,93978.69
2022-07-29T19:30:00.299Z,93987.19
2022-07-29T19:32:27.930Z,93987.47
2022-07-29T19:35:13.723Z,93989.69
2022-07-29T19:37:40.718Z,93981.09
2022-07-29T19:40:07.999Z,93974.94
2022-07-29T19:42:35.591Z,93978.19
2022-07-29T19:45:02.486Z,93983.66
2022-07-29T19:47:29.292Z,93985.31
2022-07-29T19:49:56.457Z,93993.69
2022-07-29T19:52:23.342Z,93998.06
2022-07-29T19:54:50.135Z,93999.06
2022-07-29T19:57:16.910Z,93996.53
2022-07-29T19:59:44.340Z,94004.91
2022-07-29T20:02:12.757Z,94009.97
2022-07-29T20:04:39.895Z,94019.25
2022-07-29T20:07:07.286Z,94025.47
2022-07-29T20:09:34.543Z,94023.75
2022-07-29T20:12:01.596Z,94024.09
2022-07-29T20:14:29.969Z,94038.25
2022-07-29T20:16:56.914Z,94034.94
2022-07-29T20:19:24.940Z,94046.91
2022-07-29T20:21:51.797Z,94052.38
2022-07-29T20:24:19.466Z,94071.03
2022-07-29T20:26:46.312Z,94074.31
2022-07-29T20:29:14.116Z,94084.56
2022-07-29T20:31:43.412Z,94082.75
2022-07-29T20:34:10.430Z,94120.16
2022-07-29T20:36:37.724Z,94175.56
2022-07-29T20:39:08.857Z,94174.31
2022-07-29T20:41:36.011Z,94165.34
2022-07-29T20:44:03.609Z,94164.56
2022-07-29T20:46:30.388Z,94165.91
2022-07-29T20:48:57.297Z,94179.06
2022-07-29T20:51:24.321Z,94184.81
2022-07-29T20:53:51.086Z,94191.63
2022-07-29T20:56:17.939Z,94195.09
2022-07-29T20:58:44.810Z,94205.34
2022-07-29T21:01:11.658Z,94199.81
2022-07-29T21:03:38.420Z,94202.44
2022-07-29T21:06:05.271Z,94186.16
2022-07-29T21:08:32.208Z,94199.59
2022-07-29T21:10:58.971Z,94200.88
2022-07-29T21:13:25.730Z,94214.50
2022-07-29T21:15:55.859Z,94219.25
2022-07-29T21:18:32.573Z,94209.53
2022-07-29T21:21:03.866Z,94220.06
2022-07-29T21:23:30.826Z,94215.84
2022-07-29T21:25:57.999Z,94228.72
2022-07-29T21:28:27.566Z,94224.75
2022-07-29T21:30:56.315Z,94225.22
2022-07-29T21:33:23.677Z,94234.19
2022-07-29T21:38:37.826Z,94222.88
2022-07-29T21:41:05.896Z,94217.66
2022-07-29T21:43:32.812Z,94215.78
2022-07-29T21:46:00.435Z,94207.41
2022-07-29T21:48:28.152Z,94210.31
2022-07-29T21:50:55.086Z,94218.69
2022-07-29T21:53:22.847Z,94217.13
2022-07-29T21:55:51.530Z,94206.06
2022-07-29T21:58:22.113Z,94205.00
2022-07-29T22:00:49.162Z,94201.59
2022-07-29T22:03:16.565Z,94200.56
2022-07-29T22:05:44.396Z,94205.78
2022-07-29T22:08:11.230Z,94201.06
2022-07-29T22:10:37.915Z,94183.97
2022-07-29T22:13:04.708Z,94186.63
2022-07-29T22:15:32.570Z,94172.44
2022-07-29T22:17:59.248Z,94181.41
2022-07-29T22:20:26.604Z,94189.00
2022-07-29T22:22:53.552Z,94176.63
2022-07-29T22:25:20.309Z,94176.09
2022-07-29T22:27:47.103Z,94177.69
2022-07-29T22:30:14.221Z,94187.69
2022-07-29T22:32:41.353Z,94190.03
2022-07-29T22:35:08.289Z,94182.44
2022-07-29T22:37:35.223Z,94192.44
2022-07-29T22:40:02.029Z,94187.94
2022-07-29T22:42:28.708Z,94182.38
2022-07-29T22:44:55.463Z,94189.78
2022-07-29T22:47:38.780Z,94191.63
2022-07-29T22:50:09.098Z,94184.50
2022-07-29T22:52:35.786Z,94180.84
2022-07-29T22:55:04.138Z,94176.63
2022-07-29T22:57:30.874Z,94180.56
2022-07-29T22:59:57.618Z,94169.81
2022-07-29T23:02:24.269Z,94168.25
2022-07-29T23:04:50.892Z,94161.91
2022-07-29T23:07:17.836Z,94161.41
2022-07-29T23:09:44.512Z,94162.69
2022-07-29T23:12:11.247Z,94150.59
2022-07-29T23:14:37.938Z,94154.56
2022-07-29T23:17:05.181Z,94158.72
2022-07-29T23:19:32.343Z,94153.50
2022-07-29T23:21:59.087Z,94147.69
2022-07-29T23:24:25.746Z,94145.34
2022-07-29T23:26:52.484Z,94156.13
2022-07-29T23:29:19.147Z,94156.41
2022-07-29T23:31:48.225Z,94158.75
2022-07-29T23:34:15.207Z,94151.38
2022-07-29T23:36:42.451Z,94150.31
2022-07-29T23:39:13.358Z,94149.28
2022-07-29T23:41:40.455Z,94158.22
2022-07-29T23:44:07.226Z,94151.94
2022-07-29T23:46:34.107Z,94149.03
2022-07-29T23:49:00.936Z,94141.41
2022-07-29T23:51:29.248Z,94140.34
2022-07-29T23:53:56.214Z,94131.44
2022-07-29T23:56:22.950Z,94132.78
2022-07-29T23:58:49.675Z,94123.06
